Time;durP1;ratioP1;P1;durP2;ratioP2;P2;SDS_P1;SDS_P2;PMS_P1;PMS_P2;Temp;Humidity;BMP_temperature;BMP_pressure;BME280_temperature;BME280_humidity;BME280_pressure;Samples;Min_cycle;Max_cycle;Signal;HPM_P1;HPM_P2
2023/11/15 00:00:18;;;;;;;90.50;83.70;;;;;;;;;;5134483;27;20494;-79
2023/11/15 00:02:45;;;;;;;88.80;82.50;;;;;;;;;;5135393;27;20521;-78
2023/11/15 00:05:12;;;;;;;77.20;72.07;;;;;;;;;;5134784;27;20458;-77
2023/11/15 00:07:41;;;;;;;82.80;77.27;;;;;;;;;;5135674;27;21259;-79
2023/11/15 00:10:08;;;;;;;86.50;80.47;;;;;;;;;;5135587;27;20440;-79
2023/11/15 00:12:35;;;;;;;83.80;77.63;;;;;;;;;;5135134;27;20931;-77
2023/11/15 00:15:03;;;;;;;80.37;74.80;;;;;;;;;;5134489;27;20826;-79
2023/11/15 00:17:30;;;;;;;87.40;81.57;;;;;;;;;;5135636;27;20555;-78
2023/11/15 00:19:59;;;;;;;80.90;74.77;;;;;;;;;;5135410;27;21124;-79
2023/11/15 00:22:26;;;;;;;80.73;75.50;;;;;;;;;;5135353;27;20433;-79
2023/11/15 00:24:54;;;;;;;81.57;75.90;;;;;;;;;;5134374;27;20785;-79
2023/11/15 00:27:21;;;;;;;82.97;77.27;;;;;;;;;;5134733;27;20984;-79
2023/11/15 00:29:49;;;;;;;84.00;77.50;;;;;;;;;;5135239;27;20415;-78
2023/11/15 00:32:19;;;;;;;82.87;77.27;;;;;;;;;;5134117;27;20497;-77
2023/11/15 00:34:46;;;;;;;73.00;68.40;;;;;;;;;;5134359;27;20504;-77
2023/11/15 00:37:13;;;;;;;77.83;72.57;;;;;;;;;;5134316;27;20474;-78
2023/11/15 00:39:41;;;;;;;80.33;75.10;;;;;;;;;;5134411;27;20479;-79
2023/11/15 00:42:10;;;;;;;79.23;73.67;;;;;;;;;;5134000;27;20509;-79
2023/11/15 00:44:38;;;;;;;77.63;72.50;;;;;;;;;;5133993;27;20451;-78
2023/11/15 00:47:05;;;;;;;76.03;70.80;;;;;;;;;;5134436;27;20450;-78
2023/11/15 00:49:32;;;;;;;73.30;68.40;;;;;;;;;;5134260;27;20478;-79
2023/11/15 00:51:59;;;;;;;73.70;68.60;;;;;;;;;;5133553;27;20442;-79
2023/11/15 00:54:26;;;;;;;76.90;71.53;;;;;;;;;;5120082;27;20940;-78
2023/11/15 00:56:55;;;;;;;74.83;69.73;;;;;;;;;;5113160;28;20463;-77
2023/11/15 00:59:27;;;;;;;74.37;69.73;;;;;;;;;;5113873;28;20526;-78
2023/11/15 01:01:59;;;;;;;73.47;68.93;;;;;;;;;;5113684;28;20436;-79
2023/11/15 01:04:26;;;;;;;76.43;71.73;;;;;;;;;;5113100;28;20531;-79
2023/11/15 01:06:53;;;;;;;77.33;72.30;;;;;;;;;;5113429;28;20970;-78
2023/11/15 01:09:23;;;;;;;75.87;71.00;;;;;;;;;;5112822;28;20460;-78
2023/11/15 01:11:50;;;;;;;80.10;74.70;;;;;;;;;;5113904;28;20884;-78
2023/11/15 01:14:18;;;;;;;78.60;73.70;;;;;;;;;;5113290;28;20426;-79
2023/11/15 01:16:46;;;;;;;74.70;70.27;;;;;;;;;;5113798;28;20427;-79
2023/11/15 01:19:13;;;;;;;75.40;71.00;;;;;;;;;;5113438;28;20487;-77
2023/11/15 01:21:40;;;;;;;77.30;72.90;;;;;;;;;;5113890;28;20423;-79
2023/11/15 01:27:13;;;;;;;76.77;72.10;;;;;;;;;;5027650;28;20478;-81
2023/11/15 01:29:40;;;;;;;77.73;72.93;;;;;;;;;;5036521;28;20423;-79
2023/11/15 01:32:09;;;;;;;80.87;75.77;;;;;;;;;;5132536;27;20449;-78
2023/11/15 01:34:36;;;;;;;81.23;75.83;;;;;;;;;;5133492;27;20450;-78
2023/11/15 01:37:03;;;;;;;82.40;77.67;;;;;;;;;;5133459;27;21048;-77
2023/11/15 01:39:31;;;;;;;84.43;79.60;;;;;;;;;;5134212;27;20569;-79
2023/11/15 01:41:58;;;;;;;76.70;72.70;;;;;;;;;;5126382;27;20467;-79
2023/11/15 01:44:25;;;;;;;84.50;80.10;;;;;;;;;;5113118;28;20456;-79
2023/11/15 01:46:53;;;;;;;78.60;74.50;;;;;;;;;;5113579;28;20454;-79
2023/11/15 01:49:22;;;;;;;82.40;78.10;;;;;;;;;;5113287;28;20439;-80
2023/11/15 01:51:51;;;;;;;81.80;77.40;;;;;;;;;;5112845;28;20555;-79
2023/11/15 01:54:19;;;;;;;78.73;74.53;;;;;;;;;;5112646;28;20448;-79
2023/11/15 01:56:46;;;;;;;75.00;71.30;;;;;;;;;;5113439;28;20547;-78
2023/11/15 01:59:14;;;;;;;73.70;69.83;;;;;;;;;;5113247;28;20832;-78
2023/11/15 02:01:41;;;;;;;78.47;74.37;;;;;;;;;;5112572;28;20471;-78
2023/11/15 02:04:09;;;;;;;77.03;72.53;;;;;;;;;;5114666;27;20447;-78
2023/11/15 02:06:37;;;;;;;80.03;75.40;;;;;;;;;;5133579;27;20840;-79
2023/11/15 02:09:05;;;;;;;81.93;76.80;;;;;;;;;;5134377;27;20902;-79
2023/11/15 02:11:32;;;;;;;86.83;81.70;;;;;;;;;;5134284;27;20530;-78
2023/11/15 02:13:59;;;;;;;81.60;76.93;;;;;;;;;;5132741;27;20978;-79
2023/11/15 02:16:27;;;;;;;86.07;81.27;;;;;;;;;;5134300;27;20454;-79
2023/11/15 02:18:54;;;;;;;82.27;77.83;;;;;;;;;;5133821;27;20484;-78
2023/11/15 02:21:22;;;;;;;92.10;87.40;;;;;;;;;;5134654;27;20817;-78
2023/11/15 02:23:51;;;;;;;91.50;86.47;;;;;;;;;;5134355;27;20557;-79
2023/11/15 02:26:19;;;;;;;91.33;86.40;;;;;;;;;;5134599;27;20482;-78
2023/11/15 02:28:46;;;;;;;89.17;84.20;;;;;;;;;;5133939;27;20565;-79
2023/11/15 02:31:13;;;;;;;93.13;87.20;;;;;;;;;;5134061;27;20435;-78
2023/11/15 02:33:40;;;;;;;94.97;88.77;;;;;;;;;;5134207;27;20425;-79
2023/11/15 02:36:08;;;;;;;96.47;90.70;;;;;;;;;;5134024;27;20446;-79
2023/11/15 02:38:35;;;;;;;93.40;87.40;;;;;;;;;;5133629;27;20475;-79
2023/11/15 02:41:04;;;;;;;94.40;88.83;;;;;;;;;;5133712;27;20473;-78
2023/11/15 02:43:31;;;;;;;93.00;87.47;;;;;;;;;;5134009;27;20410;-79
2023/11/15 02:45:58;;;;;;;93.07;87.50;;;;;;;;;;5132943;27;20466;-79
2023/11/15 02:48:26;;;;;;;94.17;88.03;;;;;;;;;;5133529;27;20430;-78
2023/11/15 02:50:53;;;;;;;92.77;86.27;;;;;;;;;;5133673;27;20417;-79
2023/11/15 02:53:20;;;;;;;95.73;89.43;;;;;;;;;;5133777;27;20852;-77
2023/11/15 02:55:47;;;;;;;89.07;83.60;;;;;;;;;;5132318;27;20466;-79
2023/11/15 02:58:16;;;;;;;92.53;87.03;;;;;;;;;;5121671;27;20914;-79
2023/11/15 03:00:44;;;;;;;85.07;80.47;;;;;;;;;;5112668;28;20471;-79
2023/11/15 03:03:12;;;;;;;89.00;83.23;;;;;;;;;;5112613;28;20431;-79
2023/11/15 03:05:39;;;;;;;87.60;82.60;;;;;;;;;;5112394;28;20463;-79
2023/11/15 03:08:07;;;;;;;86.97;81.63;;;;;;;;;;5112329;28;20988;-78
2023/11/15 03:10:34;;;;;;;89.87;84.30;;;;;;;;;;5112954;28;20489;-78
2023/11/15 03:13:03;;;;;;;84.17;78.93;;;;;;;;;;5113013;28;20516;-78
2023/11/15 03:15:31;;;;;;;88.03;82.60;;;;;;;;;;5112638;28;20482;-78
2023/11/15 03:17:59;;;;;;;85.10;79.93;;;;;;;;;;5112087;28;21021;-79
2023/11/15 03:20:26;;;;;;;87.33;82.03;;;;;;;;;;5112666;28;20852;-78
2023/11/15 03:22:53;;;;;;;83.00;77.70;;;;;;;;;;5112555;28;20430;-80
2023/11/15 03:25:21;;;;;;;84.87;79.67;;;;;;;;;;5112299;28;20465;-78
2023/11/15 03:27:48;;;;;;;84.10;79.00;;;;;;;;;;5112337;28;20545;-80
2023/11/15 03:30:16;;;;;;;86.37;81.07;;;;;;;;;;5112294;28;20449;-79
2023/11/15 03:32:44;;;;;;;89.57;84.27;;;;;;;;;;5112361;28;20451;-78
2023/11/15 03:35:12;;;;;;;89.80;84.70;;;;;;;;;;5111818;28;20446;-78
2023/11/15 03:37:41;;;;;;;93.80;87.60;;;;;;;;;;5111672;28;20555;-79
2023/11/15 03:40:09;;;;;;;87.23;81.47;;;;;;;;;;5112063;28;20475;-78
2023/11/15 03:42:36;;;;;;;83.73;78.13;;;;;;;;;;5112136;28;20491;-78
2023/11/15 03:45:04;;;;;;;85.90;80.97;;;;;;;;;;5110832;28;20548;-77
2023/11/15 03:47:31;;;;;;;83.87;78.40;;;;;;;;;;5111875;28;20972;-79
2023/11/15 03:50:00;;;;;;;89.10;83.93;;;;;;;;;;5111874;28;20446;-78
2023/11/15 03:52:27;;;;;;;89.07;83.53;;;;;;;;;;5111226;28;20441;-79
2023/11/15 03:54:54;;;;;;;86.00;80.53;;;;;;;;;;5110699;28;20520;-79
2023/11/15 03:57:21;;;;;;;81.17;76.30;;;;;;;;;;5110897;28;20468;-78
2023/11/15 03:59:48;;;;;;;91.13;85.33;;;;;;;;;;5111292;28;20515;-77
2023/11/15 04:02:15;;;;;;;87.13;81.20;;;;;;;;;;5110954;28;20948;-78
2023/11/15 04:04:42;;;;;;;89.53;84.07;;;;;;;;;;5110148;28;20522;-79
2023/11/15 04:07:11;;;;;;;87.33;81.97;;;;;;;;;;5111184;28;20444;-79
2023/11/15 04:09:38;;;;;;;83.47;77.53;;;;;;;;;;5110699;28;20945;-78
2023/11/15 04:12:06;;;;;;;93.93;87.70;;;;;;;;;;5110641;28;20454;-77
2023/11/15 04:14:35;;;;;;;91.33;85.47;;;;;;;;;;5110204;28;20448;-79
2023/11/15 04:17:02;;;;;;;87.83;82.47;;;;;;;;;;5110238;28;20465;-79
2023/11/15 04:19:29;;;;;;;87.03;81.33;;;;;;;;;;5110276;28;20429;-78
2023/11/15 04:21:56;;;;;;;92.80;86.97;;;;;;;;;;5110635;28;20451;-78
2023/11/15 04:24:24;;;;;;;90.43;84.90;;;;;;;;;;5110196;28;20814;-78
2023/11/15 04:26:51;;;;;;;86.20;81.50;;;;;;;;;;5110408;28;20451;-78
2023/11/15 04:29:19;;;;;;;83.57;78.17;;;;;;;;;;5110697;28;20440;-78
2023/11/15 04:31:46;;;;;;;85.00;79.93;;;;;;;;;;5114414;28;20444;-77
2023/11/15 04:34:15;;;;;;;82.33;77.13;;;;;;;;;;5113534;28;20426;-77
2023/11/15 04:36:42;;;;;;;87.87;81.63;;;;;;;;;;5113965;28;20497;-79
2023/11/15 04:39:10;;;;;;;81.50;75.80;;;;;;;;;;5114114;28;20529;-78
2023/11/15 04:41:38;;;;;;;84.03;78.73;;;;;;;;;;5113618;28;20951;-77
2023/11/15 04:44:05;;;;;;;83.00;77.73;;;;;;;;;;5113277;28;20448;-78
2023/11/15 04:46:35;;;;;;;88.13;82.07;;;;;;;;;;5114256;28;20423;-78
2023/11/15 04:49:02;;;;;;;84.07;79.00;;;;;;;;;;5113922;28;20474;-77
2023/11/15 04:51:29;;;;;;;126.80;115.60;;;;;;;;;;5113687;28;20451;-78
2023/11/15 04:53:56;;;;;;;177.60;148.03;;;;;;;;;;5113468;28;21100;-79
2023/11/15 04:56:24;;;;;;;210.03;179.93;;;;;;;;;;5113744;28;20444;-77
2023/11/15 04:58:53;;;;;;;107.80;99.80;;;;;;;;;;5131312;27;20453;-79
2023/11/15 05:01:20;;;;;;;81.63;76.43;;;;;;;;;;5133914;27;20532;-79
2023/11/15 05:03:47;;;;;;;96.60;89.70;;;;;;;;;;5133364;27;20454;-80
2023/11/15 05:06:14;;;;;;;82.73;76.93;;;;;;;;;;5133663;27;20451;-78
2023/11/15 05:08:41;;;;;;;85.00;79.40;;;;;;;;;;5133705;27;20494;-78
2023/11/15 05:14:36;;;;;;;113.97;105.70;;;;;;;;;;5116310;27;20530;-78
2023/11/15 05:17:04;;;;;;;95.07;89.00;;;;;;;;;;5111475;28;20448;-77
2023/11/15 05:19:31;;;;;;;84.50;78.43;;;;;;;;;;5112359;27;20456;-78
2023/11/15 05:21:58;;;;;;;83.37;77.43;;;;;;;;;;5112854;28;20536;-78
2023/11/15 05:24:25;;;;;;;83.97;78.33;;;;;;;;;;5112298;28;20444;-78
2023/11/15 05:26:52;;;;;;;82.93;77.77;;;;;;;;;;5112807;28;20447;-79
2023/11/15 05:29:20;;;;;;;85.60;80.20;;;;;;;;;;5112726;28;20534;-77
2023/11/15 05:31:47;;;;;;;85.83;80.20;;;;;;;;;;5112648;28;20459;-77
2023/11/15 05:34:16;;;;;;;75.47;70.53;;;;;;;;;;5111925;28;20437;-78
2023/11/15 05:36:43;;;;;;;77.63;72.43;;;;;;;;;;5112793;28;20452;-77
2023/11/15 05:39:10;;;;;;;79.97;73.67;;;;;;;;;;5112550;28;20547;-77
2023/11/15 05:41:37;;;;;;;77.93;72.13;;;;;;;;;;5110556;28;20499;-77
2023/11/15 05:44:04;;;;;;;76.53;71.33;;;;;;;;;;5111830;28;20445;-77
2023/11/15 05:52:20;;;;;;;78.33;72.73;;;;;;;;;;5111064;27;20433;-78
2023/11/15 05:54:47;;;;;;;78.37;72.93;;;;;;;;;;5128839;27;20443;-76
2023/11/15 05:57:14;;;;;;;78.03;72.63;;;;;;;;;;5112002;28;20522;-78
2023/11/15 05:59:42;;;;;;;80.40;74.30;;;;;;;;;;5111906;27;20456;-78
2023/11/15 06:02:09;;;;;;;69.27;65.40;;;;;;;;;;5118677;27;20483;-77
2023/11/15 06:04:36;;;;;;;75.43;71.07;;;;;;;;;;5128657;27;20836;-78
2023/11/15 06:07:04;;;;;;;73.93;68.90;;;;;;;;;;5132633;27;20451;-78
2023/11/15 06:09:32;;;;;;;72.80;67.67;;;;;;;;;;5132390;27;20492;-78
2023/11/15 06:11:59;;;;;;;73.70;68.73;;;;;;;;;;5132571;27;20435;-77
2023/11/15 06:14:26;;;;;;;72.73;67.87;;;;;;;;;;5130996;27;20444;-82
2023/11/15 06:16:53;;;;;;;73.60;68.20;;;;;;;;;;5118656;28;20432;-82
2023/11/15 06:19:23;;;;;;;75.17;69.87;;;;;;;;;;5117889;28;20448;-82
2023/11/15 06:21:50;;;;;;;75.13;69.23;;;;;;;;;;5119273;28;20476;-82
2023/11/15 06:24:17;;;;;;;71.93;67.17;;;;;;;;;;5118658;28;20440;-82
2023/11/15 06:26:48;;;;;;;72.83;67.83;;;;;;;;;;5118878;28;20433;-83
2023/11/15 06:29:18;;;;;;;71.67;66.90;;;;;;;;;;5118584;28;20494;-84
2023/11/15 06:31:45;;;;;;;72.97;68.03;;;;;;;;;;5117803;28;20504;-84
2023/11/15 06:34:12;;;;;;;75.97;70.43;;;;;;;;;;5117421;28;20446;-85
2023/11/15 06:36:40;;;;;;;77.70;72.43;;;;;;;;;;5118756;28;20422;-83
2023/11/15 06:39:09;;;;;;;74.97;69.90;;;;;;;;;;5120033;28;20802;-85
2023/11/15 06:41:39;;;;;;;72.90;67.60;;;;;;;;;;5120343;28;20541;-85
2023/11/15 06:44:08;;;;;;;73.53;68.37;;;;;;;;;;5115433;28;20499;-78
2023/11/15 06:46:38;;;;;;;69.73;64.93;;;;;;;;;;5111103;28;20449;-77
2023/11/15 06:49:05;;;;;;;74.13;68.60;;;;;;;;;;5110487;28;20946;-77
2023/11/15 06:51:32;;;;;;;75.63;70.67;;;;;;;;;;5111174;28;20550;-77
2023/11/15 06:53:59;;;;;;;74.87;69.47;;;;;;;;;;5110302;28;20451;-77
2023/11/15 06:56:26;;;;;;;75.37;70.10;;;;;;;;;;5111290;28;20436;-77
2023/11/15 06:58:53;;;;;;;73.93;69.20;;;;;;;;;;5111060;28;20972;-77
2023/11/15 07:01:22;;;;;;;82.90;77.90;;;;;;;;;;5110747;28;20491;-78
2023/11/15 07:03:50;;;;;;;84.53;78.67;;;;;;;;;;5109647;28;20475;-78
2023/11/15 07:06:17;;;;;;;71.90;67.50;;;;;;;;;;5123185;27;20512;-77
2023/11/15 07:08:44;;;;;;;75.10;70.20;;;;;;;;;;5128374;27;20835;-76
2023/11/15 07:11:12;;;;;;;73.47;68.43;;;;;;;;;;5111148;28;20419;-76
2023/11/15 07:13:39;;;;;;;73.37;68.83;;;;;;;;;;5110685;28;20813;-77
2023/11/15 07:16:08;;;;;;;71.67;67.27;;;;;;;;;;5110343;28;20426;-78
2023/11/15 07:18:37;;;;;;;73.10;68.40;;;;;;;;;;5110832;28;20486;-77
2023/11/15 07:21:04;;;;;;;73.67;68.97;;;;;;;;;;5111071;28;20464;-77
2023/11/15 07:23:33;;;;;;;76.13;71.13;;;;;;;;;;5110487;28;20922;-77
2023/11/15 07:26:00;;;;;;;74.30;69.63;;;;;;;;;;5110218;28;20440;-78
2023/11/15 07:28:28;;;;;;;75.43;70.20;;;;;;;;;;5110667;28;20446;-76
2023/11/15 07:30:56;;;;;;;72.50;68.00;;;;;;;;;;5110693;28;20450;-78
2023/11/15 07:33:23;;;;;;;80.07;74.33;;;;;;;;;;5110602;28;20828;-77
2023/11/15 07:35:52;;;;;;;80.50;74.67;;;;;;;;;;5110151;28;20440;-78
2023/11/15 07:38:19;;;;;;;77.73;72.63;;;;;;;;;;5111633;28;20477;-76
2023/11/15 07:40:48;;;;;;;80.70;75.97;;;;;;;;;;5110831;28;20448;-78
2023/11/15 07:43:17;;;;;;;81.83;76.90;;;;;;;;;;5130367;27;20517;-83
2023/11/15 07:45:51;;;;;;;84.73;79.70;;;;;;;;;;5137654;28;20447;-77
2023/11/15 07:48:19;;;;;;;79.07;73.90;;;;;;;;;;5133944;28;20977;-77
2023/11/15 07:50:46;;;;;;;83.60;78.40;;;;;;;;;;5123977;28;20529;-77
2023/11/15 07:53:14;;;;;;;87.13;81.50;;;;;;;;;;5112736;28;20444;-76
2023/11/15 07:55:42;;;;;;;81.23;76.23;;;;;;;;;;5109986;28;20454;-77
2023/11/15 07:58:11;;;;;;;78.90;74.40;;;;;;;;;;5109975;28;21046;-77
2023/11/15 08:00:38;;;;;;;77.90;73.20;;;;;;;;;;5110375;28;20459;-76
2023/11/15 08:03:05;;;;;;;79.93;75.10;;;;;;;;;;5109912;28;20495;-78
2023/11/15 08:05:32;;;;;;;78.90;74.40;;;;;;;;;;5111960;28;20414;-76
2023/11/15 08:07:59;;;;;;;77.47;72.57;;;;;;;;;;5114298;28;20483;-78
2023/11/15 08:10:30;;;;;;;74.77;70.03;;;;;;;;;;5114166;28;20903;-77
2023/11/15 08:12:58;;;;;;;70.03;66.00;;;;;;;;;;5114275;28;20448;-79
2023/11/15 08:15:25;;;;;;;73.93;69.70;;;;;;;;;;5120768;28;20513;-84
2023/11/15 08:17:52;;;;;;;72.63;68.43;;;;;;;;;;5119807;27;20497;-77
2023/11/15 08:20:20;;;;;;;68.73;65.20;;;;;;;;;;5114795;28;20451;-77
2023/11/15 08:22:47;;;;;;;65.33;61.90;;;;;;;;;;5113650;28;21007;-77
2023/11/15 08:25:24;;;;;;;70.27;66.57;;;;;;;;;;5113190;28;20444;-77
2023/11/15 08:27:52;;;;;;;70.60;66.60;;;;;;;;;;5113954;28;20471;-77
2023/11/15 08:30:19;;;;;;;74.57;70.47;;;;;;;;;;5113874;28;20455;-76
2023/11/15 08:32:48;;;;;;;70.53;66.50;;;;;;;;;;5114071;28;20444;-77
2023/11/15 08:35:17;;;;;;;73.40;69.07;;;;;;;;;;5113328;28;20528;-77
2023/11/15 08:37:44;;;;;;;71.83;67.83;;;;;;;;;;5113651;28;21180;-78
2023/11/15 08:40:12;;;;;;;73.00;69.00;;;;;;;;;;5113035;28;20458;-77
2023/11/15 08:42:39;;;;;;;71.33;67.43;;;;;;;;;;5113556;28;20494;-76
2023/11/15 08:45:09;;;;;;;75.60;71.20;;;;;;;;;;5113268;28;20445;-76
2023/11/15 08:47:36;;;;;;;72.30;68.40;;;;;;;;;;5113604;28;20494;-77
2023/11/15 08:50:08;;;;;;;74.97;70.93;;;;;;;;;;5113278;28;20440;-77
2023/11/15 08:52:36;;;;;;;72.63;68.77;;;;;;;;;;5113323;28;20447;-76
2023/11/15 08:55:05;;;;;;;71.07;67.37;;;;;;;;;;5112460;28;21003;-76
2023/11/15 08:57:32;;;;;;;74.03;70.10;;;;;;;;;;5113352;28;20472;-77
2023/11/15 09:00:00;;;;;;;75.63;71.63;;;;;;;;;;5112868;28;21207;-76
2023/11/15 09:02:31;;;;;;;65.80;62.10;;;;;;;;;;5112870;28;20484;-76
2023/11/15 09:05:00;;;;;;;62.33;59.13;;;;;;;;;;5112688;28;20792;-75
2023/11/15 09:07:29;;;;;;;65.13;61.83;;;;;;;;;;5113088;28;20476;-77
2023/11/15 09:09:57;;;;;;;65.43;62.20;;;;;;;;;;5113059;28;20997;-78
2023/11/15 09:12:30;;;;;;;57.80;54.80;;;;;;;;;;5113192;28;20450;-77
2023/11/15 09:14:58;;;;;;;62.23;59.13;;;;;;;;;;5112654;28;20437;-76
2023/11/15 09:17:25;;;;;;;62.33;59.07;;;;;;;;;;5113151;28;20562;-77
2023/11/15 09:19:59;;;;;;;58.27;55.23;;;;;;;;;;5113199;28;20455;-77
2023/11/15 09:22:28;;;;;;;58.63;55.53;;;;;;;;;;5112819;28;21334;-76
2023/11/15 09:24:55;;;;;;;57.93;54.93;;;;;;;;;;5112506;28;20429;-76
2023/11/15 09:27:23;;;;;;;59.10;56.07;;;;;;;;;;5112115;28;20472;-75
2023/11/15 09:29:51;;;;;;;60.33;57.07;;;;;;;;;;5113067;28;20475;-77
2023/11/15 09:32:18;;;;;;;66.17;62.63;;;;;;;;;;5112789;28;20839;-75
2023/11/15 09:34:46;;;;;;;63.47;59.90;;;;;;;;;;5112737;28;20476;-76
2023/11/15 09:37:14;;;;;;;67.40;63.23;;;;;;;;;;5114806;28;20578;-77
2023/11/15 09:39:43;;;;;;;60.60;57.43;;;;;;;;;;5112420;28;20463;-76
2023/11/15 09:42:10;;;;;;;61.43;58.13;;;;;;;;;;5112355;28;20491;-76
2023/11/15 09:44:41;;;;;;;60.30;57.10;;;;;;;;;;5111960;28;20444;-76
2023/11/15 09:47:09;;;;;;;58.30;55.17;;;;;;;;;;5112315;28;20907;-77
2023/11/15 09:49:37;;;;;;;58.10;55.00;;;;;;;;;;5112679;28;20414;-75
2023/11/15 09:52:05;;;;;;;56.10;52.80;;;;;;;;;;5112432;28;20887;-77
2023/11/15 09:54:34;;;;;;;57.87;54.27;;;;;;;;;;5112020;28;20430;-75
2023/11/15 09:57:01;;;;;;;54.73;51.90;;;;;;;;;;5111997;28;20452;-76
2023/11/15 09:59:30;;;;;;;55.10;51.57;;;;;;;;;;5112340;28;20426;-76
2023/11/15 10:01:57;;;;;;;53.77;50.73;;;;;;;;;;5112536;28;20476;-76
2023/11/15 10:04:25;;;;;;;54.53;51.53;;;;;;;;;;5110897;28;20466;-76
2023/11/15 10:06:52;;;;;;;60.97;57.33;;;;;;;;;;5112040;28;20446;-77
2023/11/15 10:09:34;;;;;;;58.60;54.77;;;;;;;;;;5112028;28;20448;-77
2023/11/15 10:12:02;;;;;;;55.83;52.80;;;;;;;;;;5112207;28;20426;-76
2023/11/15 10:14:32;;;;;;;56.87;53.47;;;;;;;;;;5110934;28;20419;-77
2023/11/15 10:17:00;;;;;;;56.83;53.50;;;;;;;;;;5111553;28;20791;-77
2023/11/15 10:19:28;;;;;;;56.73;53.80;;;;;;;;;;5112215;28;20521;-77
2023/11/15 10:22:00;;;;;;;58.23;54.73;;;;;;;;;;5111674;28;20499;-76
2023/11/15 10:24:28;;;;;;;60.53;57.27;;;;;;;;;;5109975;28;20442;-79
2023/11/15 10:26:58;;;;;;;65.20;61.73;;;;;;;;;;5111375;28;21325;-77
2023/11/15 10:29:26;;;;;;;65.87;62.13;;;;;;;;;;5111285;28;20425;-78
2023/11/15 10:31:56;;;;;;;60.87;57.77;;;;;;;;;;5111526;28;20478;-78
2023/11/15 10:34:28;;;;;;;63.80;60.47;;;;;;;;;;5111081;28;20402;-78
2023/11/15 10:37:17;;;;;;;63.60;60.20;;;;;;;;;;5111435;28;20474;-79
2023/11/15 10:39:46;;;;;;;62.80;59.50;;;;;;;;;;5087279;28;20437;-78
2023/11/15 10:42:15;;;;;;;70.13;66.47;;;;;;;;;;5111336;28;20479;-78
2023/11/15 10:44:46;;;;;;;68.47;64.90;;;;;;;;;;5111004;28;20444;-78
2023/11/15 10:47:19;;;;;;;69.70;65.90;;;;;;;;;;5111448;28;20431;-78
2023/11/15 10:49:46;;;;;;;64.83;61.20;;;;;;;;;;5111563;28;20468;-79
2023/11/15 10:52:14;;;;;;;62.90;59.57;;;;;;;;;;5111582;28;20497;-78
2023/11/15 10:54:42;;;;;;;63.17;59.87;;;;;;;;;;5110213;28;20440;-77
2023/11/15 10:57:11;;;;;;;63.93;60.53;;;;;;;;;;5111172;28;20476;-78
2023/11/15 10:59:40;;;;;;;71.17;67.50;;;;;;;;;;5111197;28;20444;-77
2023/11/15 11:02:09;;;;;;;69.90;66.20;;;;;;;;;;5110860;28;20491;-77
2023/11/15 11:04:38;;;;;;;65.53;62.23;;;;;;;;;;5110351;28;20462;-78
2023/11/15 11:07:10;;;;;;;68.53;65.13;;;;;;;;;;5111473;28;20551;-77
2023/11/15 11:09:41;;;;;;;66.97;63.53;;;;;;;;;;5110935;28;20518;-77
2023/11/15 11:12:11;;;;;;;66.10;62.70;;;;;;;;;;5110863;28;20424;-78
2023/11/15 11:14:40;;;;;;;69.30;65.70;;;;;;;;;;5110309;28;20447;-78
2023/11/15 11:17:22;;;;;;;70.57;66.70;;;;;;;;;;5110907;28;20425;-77
2023/11/15 11:19:50;;;;;;;69.47;65.87;;;;;;;;;;5127104;27;20474;-78
2023/11/15 11:22:17;;;;;;;71.80;68.30;;;;;;;;;;5131352;27;20487;-77
2023/11/15 11:25:07;;;;;;;68.90;65.20;;;;;;;;;;5130791;27;20444;-78
2023/11/15 11:27:36;;;;;;;66.73;63.23;;;;;;;;;;5130752;27;20478;-78
2023/11/15 11:30:23;;;;;;;65.23;61.93;;;;;;;;;;5131020;27;20447;-77
2023/11/15 11:32:50;;;;;;;71.63;67.73;;;;;;;;;;5131273;28;20414;-78
2023/11/15 11:35:34;;;;;;;70.57;66.40;;;;;;;;;;5130939;28;20478;-77
2023/11/15 11:38:03;;;;;;;67.67;63.80;;;;;;;;;;5130871;28;20478;-78
2023/11/15 11:40:31;;;;;;;68.20;64.70;;;;;;;;;;5133129;27;20456;-78
2023/11/15 11:43:15;;;;;;;70.87;67.17;;;;;;;;;;5134585;27;20461;-78
2023/11/15 11:45:44;;;;;;;66.63;62.77;;;;;;;;;;5134659;27;20443;-77
2023/11/15 11:48:18;;;;;;;70.40;66.50;;;;;;;;;;5120571;27;20483;-78
2023/11/15 11:50:52;;;;;;;67.57;64.00;;;;;;;;;;5114572;28;20444;-77
2023/11/15 11:53:19;;;;;;;67.73;64.20;;;;;;;;;;5114816;28;20548;-78
2023/11/15 11:55:46;;;;;;;69.70;65.60;;;;;;;;;;5114116;28;20440;-78
2023/11/15 11:58:14;;;;;;;72.47;68.67;;;;;;;;;;5113990;28;20486;-77
2023/11/15 12:00:41;;;;;;;75.60;71.00;;;;;;;;;;5114284;28;20471;-78
2023/11/15 12:03:11;;;;;;;71.10;67.30;;;;;;;;;;5114386;28;20484;-77
2023/11/15 12:05:38;;;;;;;74.40;70.30;;;;;;;;;;5113744;28;20503;-78
2023/11/15 12:08:05;;;;;;;69.10;65.33;;;;;;;;;;5112944;28;20479;-78
2023/11/15 12:10:33;;;;;;;74.23;69.80;;;;;;;;;;5114334;28;20497;-77
2023/11/15 12:13:02;;;;;;;73.60;69.20;;;;;;;;;;5114313;28;20509;-77
2023/11/15 12:15:29;;;;;;;77.30;72.90;;;;;;;;;;5113493;28;20805;-77
2023/11/15 12:17:58;;;;;;;77.77;73.17;;;;;;;;;;5113355;28;20633;-77
2023/11/15 12:20:30;;;;;;;79.70;75.00;;;;;;;;;;5114114;28;20444;-76
2023/11/15 12:23:04;;;;;;;85.17;80.10;;;;;;;;;;5114451;28;20487;-78
2023/11/15 12:25:32;;;;;;;82.67;76.97;;;;;;;;;;5113490;28;20486;-77
2023/11/15 12:28:02;;;;;;;78.33;73.27;;;;;;;;;;5113876;28;20976;-76
2023/11/15 12:30:32;;;;;;;86.77;80.93;;;;;;;;;;5114075;28;20855;-77
2023/11/15 12:33:02;;;;;;;82.50;77.30;;;;;;;;;;5114018;28;20432;-78
2023/11/15 12:35:30;;;;;;;78.33;73.13;;;;;;;;;;5113440;28;20448;-77
2023/11/15 12:37:59;;;;;;;70.27;65.83;;;;;;;;;;5113850;28;20467;-77
2023/11/15 12:40:27;;;;;;;71.20;67.00;;;;;;;;;;5113558;28;20473;-77
2023/11/15 12:42:56;;;;;;;71.37;67.23;;;;;;;;;;5113496;28;20991;-77
2023/11/15 12:45:29;;;;;;;69.50;65.07;;;;;;;;;;5113404;28;20454;-78
2023/11/15 12:48:01;;;;;;;71.90;66.73;;;;;;;;;;5116396;27;21014;-77
2023/11/15 12:50:28;;;;;;;68.63;64.33;;;;;;;;;;5113455;28;20811;-78
2023/11/15 12:53:04;;;;;;;67.07;62.90;;;;;;;;;;5116574;27;20422;-78
2023/11/15 12:55:46;;;;;;;64.77;60.53;;;;;;;;;;5114784;27;20524;-77
2023/11/15 12:58:14;;;;;;;56.40;53.20;;;;;;;;;;5113080;28;20582;-77
2023/11/15 13:00:41;;;;;;;61.10;56.97;;;;;;;;;;5122901;27;20482;-83
2023/11/15 13:03:19;;;;;;;59.53;55.73;;;;;;;;;;5120238;28;20483;-82
2023/11/15 13:05:46;;;;;;;69.10;64.13;;;;;;;;;;5119266;28;20478;-80
2023/11/15 13:08:14;;;;;;;65.17;60.53;;;;;;;;;;5120092;28;20827;-83
2023/11/15 13:10:41;;;;;;;66.90;62.80;;;;;;;;;;5120548;28;20452;-85
2023/11/15 13:13:11;;;;;;;65.13;60.57;;;;;;;;;;5113468;28;20468;-77
2023/11/15 13:15:38;;;;;;;61.17;57.63;;;;;;;;;;5112680;28;20528;-77
2023/11/15 13:18:05;;;;;;;65.47;61.57;;;;;;;;;;5112861;28;20462;-78
2023/11/15 13:20:35;;;;;;;55.43;52.30;;;;;;;;;;5112923;28;20452;-77
2023/11/15 13:23:02;;;;;;;54.17;50.87;;;;;;;;;;5112489;28;20484;-77
2023/11/15 13:25:31;;;;;;;47.97;45.47;;;;;;;;;;5112376;28;20447;-77
2023/11/15 13:27:58;;;;;;;49.33;46.23;;;;;;;;;;5112523;28;21109;-77
2023/11/15 13:30:26;;;;;;;56.27;51.30;;;;;;;;;;5112860;28;20472;-78
2023/11/15 13:32:53;;;;;;;45.73;42.83;;;;;;;;;;5111841;28;20956;-76
2023/11/15 13:35:20;;;;;;;53.97;49.60;;;;;;;;;;5112282;28;20443;-78
2023/11/15 13:37:47;;;;;;;45.50;42.67;;;;;;;;;;5112404;28;20464;-77
2023/11/15 13:40:16;;;;;;;42.80;40.40;;;;;;;;;;5112384;28;20496;-78
2023/11/15 13:42:44;;;;;;;47.63;44.83;;;;;;;;;;5112006;28;20491;-77
2023/11/15 13:45:13;;;;;;;46.77;43.70;;;;;;;;;;5111049;28;20463;-77
2023/11/15 13:47:41;;;;;;;46.97;43.57;;;;;;;;;;5112604;28;20468;-78
2023/11/15 13:50:08;;;;;;;45.20;41.97;;;;;;;;;;5111818;28;20454;-77
2023/11/15 13:52:36;;;;;;;46.40;42.70;;;;;;;;;;5112145;28;20448;-77
2023/11/15 13:55:04;;;;;;;40.70;38.10;;;;;;;;;;5111071;28;20540;-77
2023/11/15 13:57:31;;;;;;;41.43;38.73;;;;;;;;;;5111906;28;20482;-77
2023/11/15 13:59:59;;;;;;;43.50;40.90;;;;;;;;;;5112292;28;20477;-75
2023/11/15 14:02:26;;;;;;;39.47;36.60;;;;;;;;;;5111456;28;20456;-78
2023/11/15 14:04:54;;;;;;;37.97;35.50;;;;;;;;;;5110982;28;20448;-77
2023/11/15 14:07:21;;;;;;;41.40;37.50;;;;;;;;;;5111997;28;20884;-77
2023/11/15 14:09:49;;;;;;;38.90;36.20;;;;;;;;;;5112285;28;20431;-76
2023/11/15 14:12:16;;;;;;;39.90;37.20;;;;;;;;;;5112150;28;20497;-77
2023/11/15 14:14:44;;;;;;;41.53;38.50;;;;;;;;;;5110728;28;20462;-76
2023/11/15 14:17:12;;;;;;;39.60;36.87;;;;;;;;;;5112008;28;20476;-76
2023/11/15 14:19:40;;;;;;;38.60;35.50;;;;;;;;;;5111982;28;20546;-77
2023/11/15 14:22:07;;;;;;;53.30;48.80;;;;;;;;;;5111946;28;20909;-76
2023/11/15 14:24:35;;;;;;;54.53;49.97;;;;;;;;;;5110890;28;20532;-78
2023/11/15 14:27:03;;;;;;;49.10;45.27;;;;;;;;;;5130274;27;20526;-77
2023/11/15 14:29:31;;;;;;;53.60;49.73;;;;;;;;;;5132033;27;20458;-76
2023/11/15 14:31:58;;;;;;;54.93;50.70;;;;;;;;;;5132442;27;20451;-78
2023/11/15 14:34:28;;;;;;;53.73;50.20;;;;;;;;;;5131880;27;20861;-77